createdAt,value
2023-02-16T00:00:39.994Z,0
2023-02-16T00:01:40.013Z,0
2023-02-16T00:02:40.052Z,0
2023-02-16T00:03:40.018Z,0
2023-02-16T00:04:40.044Z,0
2023-02-16T00:05:40.010Z,0
2023-02-16T00:06:40.011Z,0
2023-02-16T00:07:40.000Z,0
2023-02-16T00:08:40.003Z,0
2023-02-16T00:09:40.052Z,0
2023-02-16T00:10:40.026Z,0
2023-02-16T00:11:40.010Z,0
2023-02-16T00:12:40.005Z,0
2023-02-16T00:13:39.995Z,0
2023-02-16T00:14:39.997Z,0
2023-02-16T00:15:40.043Z,0
2023-02-16T00:16:40.003Z,0
2023-02-16T00:17:40.007Z,0
2023-02-16T00:18:40.001Z,0
2023-02-16T00:19:40.007Z,0
2023-02-16T00:20:39.990Z,0
2023-02-16T00:21:39.998Z,0
2023-02-16T00:22:40.003Z,0
2023-02-16T00:23:39.994Z,0
2023-02-16T00:24:39.999Z,0
2023-02-16T00:25:39.996Z,0
2023-02-16T00:26:40.092Z,0
2023-02-16T00:27:40.002Z,0
2023-02-16T00:28:39.993Z,0
2023-02-16T00:29:40.000Z,0
2023-02-16T00:30:40.003Z,0
2023-02-16T00:31:40.133Z,0
2023-02-16T00:32:40.013Z,0
2023-02-16T00:33:39.993Z,0
2023-02-16T00:34:40.002Z,0
2023-02-16T00:35:40.006Z,0
2023-02-16T00:36:40.016Z,0
2023-02-16T00:37:40.020Z,0
2023-02-16T00:38:40.003Z,0
2023-02-16T00:39:40.025Z,0
2023-02-16T00:40:40.007Z,0
2023-02-16T00:41:40.017Z,0
2023-02-16T00:42:40.009Z,0
2023-02-16T00:43:40.011Z,0
2023-02-16T00:44:39.998Z,0
2023-02-16T00:45:40.008Z,0
2023-02-16T00:46:40.017Z,0
2023-02-16T00:47:40.006Z,0
2023-02-16T00:48:40.007Z,0
2023-02-16T00:49:40.008Z,0
2023-02-16T00:50:40.001Z,0
2023-02-16T00:51:40.020Z,0
2023-02-16T00:52:39.999Z,0
2023-02-16T00:53:39.999Z,0
2023-02-16T00:54:40.023Z,0
2023-02-16T00:55:40.002Z,0
2023-02-16T00:56:40.020Z,0
2023-02-16T00:57:40.365Z,0
2023-02-16T00:58:39.997Z,0
2023-02-16T00:59:40.030Z,0
2023-02-16T01:00:40.010Z,0
2023-02-16T01:01:40.101Z,0
2023-02-16T01:02:40.034Z,0
2023-02-16T01:03:40.011Z,0
2023-02-16T01:04:40.069Z,0
2023-02-16T01:05:40.022Z,0
2023-02-16T01:06:40.004Z,0
2023-02-16T01:07:39.994Z,0
2023-02-16T01:08:40.009Z,0
2023-02-16T01:09:40.044Z,0
2023-02-16T01:10:40.005Z,0
2023-02-16T01:11:40.006Z,0
2023-02-16T01:12:40.005Z,0
2023-02-16T01:13:40.280Z,0
2023-02-16T01:14:40.397Z,0
2023-02-16T01:15:40.079Z,0
2023-02-16T01:16:40.230Z,0
2023-02-16T01:17:40.004Z,0
2023-02-16T01:18:40.230Z,0
2023-02-16T01:19:40.048Z,0
2023-02-16T01:20:40.285Z,0
2023-02-16T01:21:40.522Z,0
2023-02-16T01:22:40.003Z,0
2023-02-16T01:23:40.000Z,0
2023-02-16T01:24:40.301Z,0
2023-02-16T01:25:40.480Z,0
2023-02-16T01:26:40.099Z,0
2023-02-16T01:27:40.196Z,0
2023-02-16T01:28:39.992Z,0
2023-02-16T01:29:40.020Z,0
2023-02-16T01:30:39.998Z,0
2023-02-16T01:31:40.102Z,0
2023-02-16T01:32:40.001Z,0
2023-02-16T01:33:40.005Z,0
2023-02-16T01:34:40.016Z,0
2023-02-16T01:35:40.014Z,0
2023-02-16T01:36:40.004Z,0
2023-02-16T01:37:39.998Z,0
2023-02-16T01:38:40.016Z,0
2023-02-16T01:39:40.028Z,0
2023-02-16T01:40:40.000Z,0
2023-02-16T01:41:40.015Z,0
2023-02-16T01:42:40.021Z,0
2023-02-16T01:43:40.008Z,0
2023-02-16T01:44:40.020Z,0
2023-02-16T01:45:39.998Z,0
2023-02-16T01:46:40.074Z,0
2023-02-16T01:47:40.010Z,0
2023-02-16T01:48:40.032Z,0
2023-02-16T01:49:40.021Z,0
2023-02-16T01:50:40.014Z,0
2023-02-16T01:51:40.002Z,0
2023-02-16T01:52:40.004Z,0
2023-02-16T01:53:40.015Z,0
2023-02-16T01:54:40.254Z,0
2023-02-16T01:55:40.535Z,0
2023-02-16T01:56:40.818Z,0
2023-02-16T01:57:40.003Z,0
2023-02-16T01:58:40.017Z,0
2023-02-16T01:59:39.997Z,0
2023-02-16T02:00:40.096Z,0
2023-02-16T02:01:40.089Z,0
2023-02-16T02:02:40.064Z,0
2023-02-16T02:03:39.997Z,0
2023-02-16T02:04:40.000Z,0
2023-02-16T02:05:40.021Z,0
2023-02-16T02:06:40.005Z,0
2023-02-16T02:07:39.990Z,0
2023-02-16T02:08:40.002Z,0
2023-02-16T02:09:40.002Z,0
2023-02-16T02:10:39.998Z,0
2023-02-16T02:11:40.000Z,0
2023-02-16T02:12:40.005Z,0
2023-02-16T02:13:40.016Z,0
2023-02-16T02:14:40.048Z,0
2023-02-16T02:15:40.001Z,0
2023-02-16T02:16:39.991Z,0
2023-02-16T02:17:40.003Z,0
2023-02-16T02:18:40.038Z,0
2023-02-16T02:19:40.000Z,0
2023-02-16T02:20:39.994Z,0
2023-02-16T02:21:40.014Z,0
2023-02-16T02:22:40.007Z,0
2023-02-16T02:23:40.004Z,0
2023-02-16T02:24:39.999Z,0
2023-02-16T02:25:40.002Z,0
2023-02-16T02:26:40.012Z,0
2023-02-16T02:27:40.003Z,0
2023-02-16T02:28:40.002Z,0
2023-02-16T02:29:40.007Z,0
2023-02-16T02:30:39.996Z,0
2023-02-16T02:31:40.152Z,0
2023-02-16T02:32:39.999Z,0
2023-02-16T02:33:39.992Z,0
2023-02-16T02:34:39.996Z,0
2023-02-16T02:35:39.991Z,0
2023-02-16T02:36:39.993Z,0
2023-02-16T02:37:40.006Z,0
2023-02-16T02:38:40.019Z,0
2023-02-16T02:39:39.998Z,0
2023-02-16T02:40:40.030Z,0
2023-02-16T02:41:40.007Z,0
2023-02-16T02:42:39.993Z,0
2023-02-16T02:43:40.102Z,0
2023-02-16T02:44:40.004Z,0
2023-02-16T02:45:40.000Z,0
2023-02-16T02:46:40.084Z,0
2023-02-16T02:47:40.012Z,0
2023-02-16T02:48:40.024Z,0
2023-02-16T02:49:39.991Z,0
2023-02-16T02:50:39.999Z,0
2023-02-16T02:51:40.018Z,0
2023-02-16T02:52:40.005Z,0
2023-02-16T02:53:40.002Z,0
2023-02-16T02:54:39.995Z,0
2023-02-16T02:55:40.003Z,0
2023-02-16T02:56:40.029Z,0
2023-02-16T02:57:40.017Z,0
2023-02-16T02:58:39.998Z,0
2023-02-16T02:59:40.006Z,0
2023-02-16T03:00:40.062Z,0
2023-02-16T03:01:40.002Z,0
2023-02-16T03:02:40.012Z,0
2023-02-16T03:03:40.006Z,0
2023-02-16T03:04:39.995Z,0
2023-02-16T03:05:40.004Z,0
2023-02-16T03:06:40.002Z,0
2023-02-16T03:07:39.995Z,0
2023-02-16T03:08:39.995Z,0
2023-02-16T03:09:40.006Z,0
2023-02-16T03:10:40.007Z,0
2023-02-16T03:11:40.112Z,0
2023-02-16T03:12:40.012Z,0
2023-02-16T03:13:40.043Z,0
2023-02-16T03:14:40.126Z,0
2023-02-16T03:15:40.437Z,0
2023-02-16T03:16:40.613Z,0
2023-02-16T03:17:40.237Z,0
2023-02-16T03:18:40.021Z,0
2023-02-16T03:19:40.004Z,0
2023-02-16T03:20:40.000Z,0
2023-02-16T03:21:40.006Z,0
2023-02-16T03:22:39.997Z,0
2023-02-16T03:23:40.020Z,0
2023-02-16T03:24:40.086Z,0
2023-02-16T03:25:40.001Z,0
2023-02-16T03:26:40.026Z,0
2023-02-16T03:27:40.006Z,0
2023-02-16T03:28:40.002Z,0
2023-02-16T03:29:39.998Z,0
2023-02-16T03:30:40.100Z,0
2023-02-16T03:31:40.152Z,0
2023-02-16T03:32:40.003Z,0
2023-02-16T03:33:40.006Z,0
2023-02-16T03:34:39.989Z,0
2023-02-16T03:35:40.001Z,0
2023-02-16T03:36:40.017Z,0
2023-02-16T03:37:40.001Z,0
2023-02-16T03:38:40.011Z,0
2023-02-16T03:39:40.097Z,0
2023-02-16T03:40:40.106Z,0
2023-02-16T03:41:40.017Z,0
2023-02-16T03:42:40.016Z,0
2023-02-16T03:43:39.987Z,0
2023-02-16T03:44:40.016Z,0
2023-02-16T03:45:40.032Z,0
2023-02-16T03:46:39.998Z,0
2023-02-16T03:47:39.988Z,0
2023-02-16T03:48:39.999Z,0
2023-02-16T03:49:40.001Z,0
2023-02-16T03:50:39.997Z,0
2023-02-16T03:51:39.997Z,0
2023-02-16T03:52:39.998Z,0
2023-02-16T03:53:40.000Z,0
2023-02-16T03:54:40.098Z,0
2023-02-16T03:55:40.003Z,0
2023-02-16T03:56:40.002Z,0
2023-02-16T03:57:40.016Z,0
2023-02-16T03:58:40.007Z,0
2023-02-16T03:59:40.003Z,0
2023-02-16T04:00:40.007Z,0
2023-02-16T04:01:39.999Z,0
2023-02-16T04:02:40.002Z,0
2023-02-16T04:03:40.007Z,0
2023-02-16T04:04:40.005Z,0
2023-02-16T04:05:39.994Z,0
2023-02-16T04:06:40.008Z,0
2023-02-16T04:07:40.015Z,0
2023-02-16T04:08:40.124Z,0
2023-02-16T04:09:40.003Z,0
2023-02-16T04:10:40.021Z,0
2023-02-16T04:11:40.005Z,0
2023-02-16T04:12:40.010Z,0
2023-02-16T04:13:39.991Z,0
2023-02-16T04:14:42.020Z,0
2023-02-16T04:15:39.994Z,0
2023-02-16T04:16:40.088Z,0
2023-02-16T04:17:40.007Z,0
2023-02-16T04:18:40.081Z,0
2023-02-16T04:19:39.995Z,0
2023-02-16T04:20:40.000Z,0
2023-02-16T04:21:40.015Z,0
2023-02-16T04:22:40.015Z,0
2023-02-16T04:23:40.077Z,0
2023-02-16T04:24:40.002Z,0
2023-02-16T04:25:40.012Z,0
2023-02-16T04:26:40.009Z,0
2023-02-16T04:27:39.993Z,0
2023-02-16T04:28:40.002Z,0
2023-02-16T04:29:40.001Z,0
2023-02-16T04:30:40.107Z,0
2023-02-16T04:31:40.104Z,0
2023-02-16T04:32:40.261Z,0
2023-02-16T04:33:40.008Z,0
2023-02-16T04:34:39.995Z,0
2023-02-16T04:35:40.001Z,0
2023-02-16T04:36:39.999Z,0
2023-02-16T04:37:40.000Z,0
2023-02-16T04:38:40.199Z,0
2023-02-16T04:39:40.006Z,0
2023-02-16T04:40:40.000Z,0
2023-02-16T04:41:40.002Z,0
2023-02-16T04:42:40.008Z,0
2023-02-16T04:43:40.001Z,0
2023-02-16T04:44:39.993Z,0
2023-02-16T04:45:39.991Z,0
2023-02-16T04:46:40.019Z,0
2023-02-16T04:47:40.251Z,0
2023-02-16T04:48:40.433Z,0
2023-02-16T04:49:40.428Z,0
2023-02-16T04:50:40.028Z,0
2023-02-16T04:51:40.017Z,0
2023-02-16T04:52:40.183Z,0
2023-02-16T04:53:40.267Z,0
2023-02-16T04:54:40.246Z,0
2023-02-16T04:55:40.442Z,0
2023-02-16T04:56:40.001Z,0
2023-02-16T04:57:39.993Z,0
2023-02-16T04:58:40.175Z,0
2023-02-16T04:59:40.002Z,0
2023-02-16T05:00:40.210Z,0
2023-02-16T05:01:40.072Z,0
2023-02-16T05:02:40.258Z,0
2023-02-16T05:03:40.014Z,0
2023-02-16T05:04:40.036Z,0
2023-02-16T05:05:39.988Z,0
2023-02-16T05:06:40.081Z,0
2023-02-16T05:07:39.995Z,0
2023-02-16T05:08:39.995Z,0
2023-02-16T05:09:40.001Z,0
2023-02-16T05:10:40.015Z,0
2023-02-16T05:11:40.009Z,0
2023-02-16T05:12:40.016Z,0
2023-02-16T05:13:42.414Z,0
2023-02-16T05:14:40.018Z,0
2023-02-16T05:15:40.032Z,0
2023-02-16T05:16:40.003Z,0
2023-02-16T05:17:40.000Z,0
2023-02-16T05:18:39.995Z,0
2023-02-16T05:19:40.032Z,0
2023-02-16T05:20:39.998Z,0
2023-02-16T05:21:40.153Z,0
2023-02-16T05:22:40.005Z,0
2023-02-16T05:23:39.989Z,0
2023-02-16T05:24:40.026Z,0
2023-02-16T05:25:40.030Z,0
2023-02-16T05:26:40.104Z,0
2023-02-16T05:27:40.004Z,0
2023-02-16T05:28:39.990Z,0
2023-02-16T05:29:40.046Z,0
2023-02-16T05:30:40.176Z,0
2023-02-16T05:31:40.076Z,0
2023-02-16T05:32:40.008Z,0
2023-02-16T05:33:40.019Z,0
2023-02-16T05:34:40.023Z,0
2023-02-16T05:35:40.101Z,0
2023-02-16T05:36:39.999Z,0
2023-02-16T05:37:42.418Z,0
2023-02-16T05:38:39.997Z,0
2023-02-16T05:39:40.002Z,0
2023-02-16T05:40:39.996Z,0
2023-02-16T05:41:40.003Z,0
2023-02-16T05:42:39.990Z,0
2023-02-16T05:43:39.993Z,0
2023-02-16T05:44:40.030Z,0
2023-02-16T05:45:39.993Z,0
2023-02-16T05:46:40.052Z,0
2023-02-16T05:47:40.004Z,0
2023-02-16T05:48:40.005Z,0
2023-02-16T05:49:40.009Z,0
2023-02-16T05:50:40.069Z,0
2023-02-16T05:51:39.999Z,0
2023-02-16T05:52:40.033Z,0
2023-02-16T05:53:40.000Z,0
2023-02-16T05:54:39.998Z,0
2023-02-16T05:55:40.003Z,0
2023-02-16T05:56:40.010Z,0
2023-02-16T05:57:40.006Z,0
2023-02-16T05:58:40.017Z,0
2023-02-16T05:59:40.010Z,0.23
2023-02-16T06:00:39.992Z,0.23
2023-02-16T06:01:39.996Z,0.23
2023-02-16T06:02:40.039Z,0.46
2023-02-16T06:03:40.046Z,0.46
2023-02-16T06:04:40.004Z,0.69
2023-02-16T06:05:39.994Z,0.69
2023-02-16T06:06:39.988Z,0.92
2023-02-16T06:07:39.997Z,1.15
2023-02-16T06:08:40.012Z,1.38
2023-02-16T06:09:39.997Z,1.61
2023-02-16T06:10:39.998Z,1.84
2023-02-16T06:11:40.026Z,2.3
2023-02-16T06:12:40.008Z,2.76
2023-02-16T06:13:40.020Z,3.22
2023-02-16T06:14:40.012Z,3.91
2023-02-16T06:15:40.022Z,4.6
2023-02-16T06:16:39.996Z,5.52
2023-02-16T06:17:40.013Z,6.67
2023-02-16T06:18:40.013Z,8.05
2023-02-16T06:19:40.081Z,9.66
2023-02-16T06:20:40.000Z,10.83
2023-02-16T06:21:40.014Z,13.33
2023-02-16T06:22:39.996Z,15.83
2023-02-16T06:23:39.996Z,19.17
2023-02-16T06:24:40.040Z,22.5
2023-02-16T06:25:39.991Z,26.67
2023-02-16T06:26:40.001Z,31.67
2023-02-16T06:27:40.006Z,36.67
2023-02-16T06:28:40.007Z,42.5
2023-02-16T06:29:40.005Z,49.17
2023-02-16T06:30:40.014Z,53.33
2023-02-16T06:31:40.134Z,64.17
2023-02-16T06:32:40.012Z,73.33
2023-02-16T06:33:40.094Z,83.33
2023-02-16T06:34:40.005Z,93.33
2023-02-16T06:35:40.013Z,104.17
2023-02-16T06:36:42.369Z,115.83
2023-02-16T06:37:40.128Z,130
2023-02-16T06:38:40.365Z,146.67
2023-02-16T06:39:40.277Z,162.5
2023-02-16T06:40:40.157Z,180
2023-02-16T06:41:40.077Z,197.5
2023-02-16T06:42:40.255Z,215.83
2023-02-16T06:43:40.126Z,237.5
2023-02-16T06:44:39.999Z,259.17
2023-02-16T06:45:40.298Z,281.67
2023-02-16T06:46:40.040Z,306.67
2023-02-16T06:47:40.234Z,333.33
2023-02-16T06:48:40.728Z,362.5
2023-02-16T06:49:40.005Z,391.67
2023-02-16T06:50:40.008Z,424.17
2023-02-16T06:51:40.179Z,455.83
2023-02-16T06:52:39.999Z,488.33
2023-02-16T06:53:40.000Z,525
2023-02-16T06:54:40.007Z,563.33
2023-02-16T06:55:40.011Z,600.83
2023-02-16T06:56:40.012Z,635.83
2023-02-16T06:57:40.005Z,667.5
2023-02-16T06:58:40.044Z,700
2023-02-16T06:59:40.000Z,735
2023-02-16T07:00:40.095Z,772.5
2023-02-16T07:01:40.013Z,810.83
2023-02-16T07:02:40.010Z,850.83
2023-02-16T07:03:40.175Z,889.17
2023-02-16T07:04:39.995Z,925.83
2023-02-16T07:05:40.006Z,960
2023-02-16T07:06:40.006Z,995
2023-02-16T07:07:39.997Z,1025
2023-02-16T07:08:40.030Z,1063.33
2023-02-16T07:09:40.000Z,1125.83
2023-02-16T07:10:49.256Z,1227.5
2023-02-16T07:11:39.999Z,1370.83
2023-02-16T07:12:40.004Z,1543.33
2023-02-16T07:13:39.995Z,1728.33
2023-02-16T07:14:40.038Z,1909.17
2023-02-16T07:15:39.995Z,2050
2023-02-16T07:16:40.171Z,2125
2023-02-16T07:17:39.997Z,2174.17
2023-02-16T07:18:39.998Z,2216.67
2023-02-16T07:19:40.016Z,2249.17
2023-02-16T07:20:40.003Z,2295
2023-02-16T07:21:39.995Z,2361.67
2023-02-16T07:22:40.007Z,2416.67
2023-02-16T07:23:39.992Z,2472.5
2023-02-16T07:24:40.025Z,2593.33
2023-02-16T07:25:39.991Z,2713.33
2023-02-16T07:26:40.004Z,2765
2023-02-16T07:27:40.002Z,2778.33
2023-02-16T07:28:40.007Z,2783.33
2023-02-16T07:29:40.024Z,2778.33
2023-02-16T07:30:40.013Z,2747.5
2023-02-16T07:31:40.272Z,2724.17
2023-02-16T07:32:39.996Z,2727.5
2023-02-16T07:33:39.996Z,2769.17
2023-02-16T07:34:40.030Z,2821.67
2023-02-16T07:35:39.999Z,2925
2023-02-16T07:36:39.994Z,3044.17
2023-02-16T07:37:40.003Z,3140
2023-02-16T07:38:39.993Z,3208.33
2023-02-16T07:39:40.010Z,3245.83
2023-02-16T07:40:40.003Z,3259.17
2023-02-16T07:41:40.005Z,3245
2023-02-16T07:42:40.009Z,3211.67
2023-02-16T07:43:39.999Z,3173.33
2023-02-16T07:44:40.010Z,3155.83
2023-02-16T07:45:40.023Z,3128.33
2023-02-16T07:46:40.010Z,3001.67
2023-02-16T07:47:40.008Z,3001.67
2023-02-16T07:48:39.997Z,3056.67
2023-02-16T07:49:40.042Z,3138.33
2023-02-16T07:50:39.997Z,3238.33
2023-02-16T07:51:40.004Z,3352.5
2023-02-16T07:52:40.028Z,3460.83
2023-02-16T07:53:39.999Z,3554.17
2023-02-16T07:54:40.014Z,3628.33
2023-02-16T07:55:40.022Z,3675
2023-02-16T07:56:40.001Z,3702.5
2023-02-16T07:57:40.008Z,3718.33
2023-02-16T07:58:40.101Z,3726.67
2023-02-16T07:59:39.991Z,3705.83
2023-02-16T08:00:40.014Z,3680
2023-02-16T08:01:40.002Z,3667.5
2023-02-16T08:02:40.096Z,3653.33
2023-02-16T08:03:40.007Z,3625
2023-02-16T08:04:39.991Z,3582.5
2023-02-16T08:05:40.009Z,3542.5
2023-02-16T08:06:40.218Z,3523.33
2023-02-16T08:07:40.006Z,3534.17
2023-02-16T08:08:39.989Z,3565.83
2023-02-16T08:09:40.000Z,3617.5
2023-02-16T08:10:40.020Z,3675
2023-02-16T08:11:39.998Z,3734.17
2023-02-16T08:12:40.021Z,3807.5
2023-02-16T08:13:40.007Z,3894.17
2023-02-16T08:14:40.013Z,3985.83
2023-02-16T08:15:40.012Z,4055
2023-02-16T08:16:40.037Z,4095.83
2023-02-16T08:17:40.028Z,4120.83
2023-02-16T08:18:40.033Z,4153.33
2023-02-16T08:19:40.008Z,2251.67
2023-02-16T08:21:01.306Z,4266.67
2023-02-16T08:21:39.998Z,4346.67
2023-02-16T08:22:40.015Z,4427.5
2023-02-16T08:23:40.001Z,4515
2023-02-16T08:24:40.031Z,4601.67
2023-02-16T08:25:40.004Z,4676.67
2023-02-16T08:26:40.162Z,4729.17
2023-02-16T08:27:40.018Z,4770.83
2023-02-16T08:28:40.004Z,4817.5
2023-02-16T08:29:40.059Z,4843.33
2023-02-16T08:30:40.004Z,4844.17
2023-02-16T08:31:40.150Z,4853.33
2023-02-16T08:32:40.007Z,4887.5
2023-02-16T08:33:40.181Z,4942.5
2023-02-16T08:34:42.929Z,4984.17
2023-02-16T08:35:40.223Z,4982.5
2023-02-16T08:36:40.133Z,4936.67
2023-02-16T08:37:40.263Z,4884.17
2023-02-16T08:38:40.008Z,4855
2023-02-16T08:39:40.026Z,4889.17
2023-02-16T08:40:40.016Z,5004.17
2023-02-16T08:41:40.028Z,5210
2023-02-16T08:42:40.006Z,5460.83
2023-02-16T08:43:39.999Z,5710.83
2023-02-16T08:44:40.070Z,5960
2023-02-16T08:45:40.043Z,6200.83
2023-02-16T08:46:40.035Z,6461.67
2023-02-16T08:47:40.000Z,6710.83
2023-02-16T08:48:40.037Z,6944.17
2023-02-16T08:49:40.009Z,7109.17
2023-02-16T08:50:39.999Z,7326.67
2023-02-16T08:51:40.003Z,7534.17
2023-02-16T08:52:39.997Z,7795.83
2023-02-16T08:53:40.002Z,8071.67
2023-02-16T08:54:40.064Z,8267.5
2023-02-16T08:55:40.008Z,8319.17
2023-02-16T08:56:40.000Z,8211.67
2023-02-16T08:57:39.992Z,7966.67
2023-02-16T08:58:40.117Z,7720
2023-02-16T08:59:39.994Z,7331.67
2023-02-16T09:00:39.991Z,6970.83
2023-02-16T09:01:40.031Z,6729.17
2023-02-16T09:02:40.092Z,6480
2023-02-16T09:03:39.998Z,6196.67
2023-02-16T09:04:40.007Z,5948.33
2023-02-16T09:05:40.224Z,5799.17
2023-02-16T09:06:39.996Z,5474.17
2023-02-16T09:07:40.001Z,5338.33
2023-02-16T09:08:39.997Z,5297.5
2023-02-16T09:09:41.757Z,5242.5
2023-02-16T09:10:39.997Z,5011.67
2023-02-16T09:11:39.999Z,4563.33
2023-02-16T09:12:40.008Z,4485
2023-02-16T09:13:40.248Z,4575.83
2023-02-16T09:14:40.051Z,4795
2023-02-16T09:15:40.266Z,5086.67
2023-02-16T09:16:40.264Z,5417.5
2023-02-16T09:17:39.999Z,5785
2023-02-16T09:18:40.103Z,6155
2023-02-16T09:19:39.995Z,6473.33
2023-02-16T09:20:40.581Z,6677.5
2023-02-16T09:21:40.062Z,6742.5
2023-02-16T09:22:40.272Z,6680.83
2023-02-16T09:23:40.225Z,6552.5
2023-02-16T09:24:40.168Z,6370.83
2023-02-16T09:25:39.988Z,6166.67
2023-02-16T09:26:39.988Z,5968.33
2023-02-16T09:27:40.029Z,5830
2023-02-16T09:28:40.008Z,5755.83
2023-02-16T09:29:39.998Z,5775
2023-02-16T09:30:40.046Z,5884.17
2023-02-16T09:31:40.074Z,6135.83
2023-02-16T09:32:39.990Z,6306.67
2023-02-16T09:33:40.013Z,6370
2023-02-16T09:34:39.994Z,6544.17
2023-02-16T09:35:40.003Z,6632.5
2023-02-16T09:36:39.999Z,6724.17
2023-02-16T09:37:39.995Z,6875
2023-02-16T09:38:40.099Z,7137.5
2023-02-16T09:39:39.997Z,7498.33
2023-02-16T09:40:39.993Z,7919.17
2023-02-16T09:41:40.022Z,9095
2023-02-16T09:42:40.001Z,10135
2023-02-16T09:43:39.992Z,9290.83
2023-02-16T09:44:40.001Z,8752.5
2023-02-16T09:45:40.009Z,8938.33
2023-02-16T09:46:40.075Z,9380
2023-02-16T09:47:40.004Z,9791.67
2023-02-16T09:48:40.008Z,10111.67
2023-02-16T09:49:40.021Z,9446.67
2023-02-16T09:50:53.240Z,9056.67
2023-02-16T09:51:39.998Z,8943.33
2023-02-16T09:52:39.995Z,9300.83
2023-02-16T09:53:40.015Z,9009.17
2023-02-16T09:54:40.000Z,9162.5
2023-02-16T09:55:40.004Z,8945
2023-02-16T09:56:40.000Z,8871.67
2023-02-16T09:57:39.986Z,8674.17
2023-02-16T09:58:40.007Z,8147.5
2023-02-16T09:59:40.000Z,7664.17
2023-02-16T10:00:39.992Z,7281.67
2023-02-16T10:01:40.097Z,7175
2023-02-16T10:02:40.059Z,7145.83
2023-02-16T10:03:39.997Z,7158.33
2023-02-16T10:04:39.997Z,7294.17
2023-02-16T10:05:39.997Z,7699.17
2023-02-16T10:06:40.013Z,10588.33
2023-02-16T10:07:40.005Z,7748.33
2023-02-16T10:08:40.016Z,9112.5
2023-02-16T10:09:40.000Z,13180.83
2023-02-16T10:10:40.324Z,10040
2023-02-16T10:11:39.996Z,8820
2023-02-16T10:12:40.000Z,8270.83
2023-02-16T10:13:39.989Z,12723.33
2023-02-16T10:14:39.999Z,11354.17
2023-02-16T10:15:40.101Z,9206.67
2023-02-16T10:16:39.989Z,12765
2023-02-16T10:17:40.004Z,12451.67
2023-02-16T10:18:40.060Z,12505.83
2023-02-16T10:19:40.009Z,13860
2023-02-16T10:20:39.991Z,15425
2023-02-16T10:21:40.000Z,14855.83
2023-02-16T10:22:40.096Z,13879.17
2023-02-16T10:23:40.482Z,14831.67
2023-02-16T10:24:40.477Z,15480.83
2023-02-16T10:25:40.160Z,15518.33
2023-02-16T10:26:40.013Z,14325
2023-02-16T10:27:40.031Z,12771.67
2023-02-16T10:28:39.998Z,12602.5
2023-02-16T10:29:40.076Z,11780
2023-02-16T10:30:40.122Z,12545.83
2023-02-16T10:31:40.121Z,11330.83
2023-02-16T10:32:43.950Z,11240.83
2023-02-16T10:33:40.018Z,11455
2023-02-16T10:34:40.037Z,11838.33
2023-02-16T10:35:39.997Z,11935
2023-02-16T10:36:40.006Z,13780
2023-02-16T10:37:39.993Z,11153.33
2023-02-16T10:38:39.990Z,10845
2023-02-16T10:39:40.050Z,10860
2023-02-16T10:40:40.007Z,11104.17
2023-02-16T10:41:39.993Z,11541.67
2023-02-16T10:42:40.004Z,11929.17
2023-02-16T10:43:40.007Z,12352.5
2023-02-16T10:44:40.035Z,12359.17
2023-02-16T10:45:40.024Z,12150
2023-02-16T10:46:40.119Z,11541.67
2023-02-16T10:47:39.999Z,10820.83
2023-02-16T10:48:40.012Z,10105.83
2023-02-16T10:49:40.067Z,9460.83
2023-02-16T10:50:40.004Z,8865
2023-02-16T10:51:40.021Z,8288.33
2023-02-16T10:52:40.006Z,7812.5
2023-02-16T10:53:40.007Z,7489.17
2023-02-16T10:54:40.007Z,7298.33
2023-02-16T10:55:40.017Z,7235
2023-02-16T10:56:40.016Z,7273.33
2023-02-16T10:57:40.002Z,7301.67
2023-02-16T10:58:40.007Z,7333.33
2023-02-16T10:59:40.017Z,7502.5
2023-02-16T11:00:40.028Z,7898.33
2023-02-16T11:01:40.082Z,8463.33
2023-02-16T11:02:40.018Z,9032.5
2023-02-16T11:03:40.002Z,9515
2023-02-16T11:04:40.171Z,9942.5
2023-02-16T11:05:40.012Z,10280
2023-02-16T11:06:40.018Z,10516.67
2023-02-16T11:07:40.016Z,10643.33
2023-02-16T11:08:40.014Z,10663.33
2023-02-16T11:09:40.015Z,10579.17
2023-02-16T11:10:40.045Z,10360.83
2023-02-16T11:11:40.092Z,10011.67
2023-02-16T11:12:40.000Z,9614.17
2023-02-16T11:13:40.013Z,9266.67
2023-02-16T11:14:40.042Z,8995.83
2023-02-16T11:15:40.033Z,8784.17
2023-02-16T11:16:40.015Z,8590.83
2023-02-16T11:17:40.015Z,8365
2023-02-16T11:18:40.086Z,8087.5
2023-02-16T11:19:40.041Z,7757.5
2023-02-16T11:20:40.010Z,7420
2023-02-16T11:21:40.031Z,7127.5
2023-02-16T11:22:40.030Z,6893.33
2023-02-16T11:23:40.031Z,6703.33
2023-02-16T11:24:40.044Z,6503.33
2023-02-16T11:25:40.008Z,6261.67
2023-02-16T11:26:40.053Z,5981.67
2023-02-16T11:27:40.010Z,5674.17
2023-02-16T11:28:40.019Z,5355
2023-02-16T11:29:40.031Z,5060.83
2023-02-16T11:30:40.093Z,4851.67
2023-02-16T11:31:40.203Z,4797.5
2023-02-16T11:32:40.010Z,4854.17
2023-02-16T11:33:40.009Z,4951.67
2023-02-16T11:34:40.024Z,5040.83
2023-02-16T11:35:40.015Z,5136.67
2023-02-16T11:36:40.008Z,5233.33
2023-02-16T11:37:40.004Z,5305
2023-02-16T11:38:40.009Z,5321.67
2023-02-16T11:39:40.054Z,5284.17
2023-02-16T11:40:40.040Z,5204.17
2023-02-16T11:41:40.269Z,5114.17
2023-02-16T11:42:39.995Z,5055.83
2023-02-16T11:43:39.994Z,5004.17
2023-02-16T11:44:40.041Z,4954.17
2023-02-16T11:45:39.999Z,4897.5
2023-02-16T11:46:40.172Z,4823.33
2023-02-16T11:47:40.018Z,4780.83
2023-02-16T11:48:39.991Z,4755
2023-02-16T11:49:40.052Z,4747.5
2023-02-16T11:50:40.012Z,4811.67
2023-02-16T11:51:40.006Z,4958.33
2023-02-16T11:52:40.002Z,5173.33
2023-02-16T11:53:39.997Z,5364.17
2023-02-16T11:54:40.042Z,5507.5
2023-02-16T11:55:40.098Z,5663.33
2023-02-16T11:56:40.035Z,5923.33
2023-02-16T11:57:40.067Z,6301.67
2023-02-16T11:58:40.117Z,6735.83
2023-02-16T11:59:40.189Z,7201.67
2023-02-16T12:00:40.093Z,7694.17
2023-02-16T12:01:39.997Z,8235
2023-02-16T12:02:40.012Z,8870
2023-02-16T12:03:40.065Z,9572.5
2023-02-16T12:04:40.039Z,10260.83
2023-02-16T12:05:39.998Z,10760
2023-02-16T12:06:40.100Z,11014.17
2023-02-16T12:07:40.447Z,11141.67
2023-02-16T12:08:40.660Z,11245.83
2023-02-16T12:09:40.013Z,11555
2023-02-16T12:10:40.131Z,11791.67
2023-02-16T12:11:40.028Z,11825.83
2023-02-16T12:12:40.282Z,11865
2023-02-16T12:13:40.026Z,11937.5
2023-02-16T12:14:40.028Z,11755
2023-02-16T12:15:40.002Z,11584.17
2023-02-16T12:16:40.026Z,11530.83
2023-02-16T12:17:39.997Z,11617.5
2023-02-16T12:18:39.997Z,11730
2023-02-16T12:19:40.011Z,11891.67
2023-02-16T12:20:40.034Z,12194.17
2023-02-16T12:21:40.000Z,14025.83
2023-02-16T12:22:39.998Z,14701.67
2023-02-16T12:23:39.997Z,14585.83
2023-02-16T12:24:40.022Z,15008.33
2023-02-16T12:25:39.992Z,13075.83
2023-02-16T12:26:40.000Z,10725
2023-02-16T12:27:40.004Z,10453.33
2023-02-16T12:28:39.999Z,9492.5
2023-02-16T12:29:40.106Z,9097.5
2023-02-16T12:30:40.348Z,10150.83
2023-02-16T12:31:40.053Z,12344.17
2023-02-16T12:32:39.990Z,12570.83
2023-02-16T12:33:41.853Z,12672.5
2023-02-16T12:34:40.006Z,14497.5
2023-02-16T12:35:40.009Z,16073.33
2023-02-16T12:36:39.993Z,14045.83
2023-02-16T12:37:40.059Z,13985.83
2023-02-16T12:38:39.991Z,16566.67
2023-02-16T12:39:39.995Z,19192.5
2023-02-16T12:40:39.997Z,17894.17
2023-02-16T12:41:40.024Z,11772.5
2023-02-16T12:42:39.987Z,10884.17
2023-02-16T12:43:40.024Z,10097.5
2023-02-16T12:44:39.987Z,9355
2023-02-16T12:45:40.031Z,8682.5
2023-02-16T12:46:40.128Z,8145.83
2023-02-16T12:47:40.318Z,7626.67
2023-02-16T12:48:40.360Z,6969.17
2023-02-16T12:49:40.493Z,6266.67
2023-02-16T12:50:39.999Z,5630.83
2023-02-16T12:51:40.001Z,5079.17
2023-02-16T12:52:40.142Z,4934.17
2023-02-16T12:53:39.994Z,5224.17
2023-02-16T12:54:40.179Z,5623.33
2023-02-16T12:55:40.027Z,5796.67
2023-02-16T12:56:40.268Z,5642.5
2023-02-16T12:57:39.988Z,5434.17
2023-02-16T12:58:40.001Z,5551.67
2023-02-16T12:59:39.994Z,5917.5
2023-02-16T13:00:40.014Z,6211.67
2023-02-16T13:01:39.996Z,6330
2023-02-16T13:02:39.995Z,6298.33
2023-02-16T13:03:40.080Z,6215.83
2023-02-16T13:04:39.999Z,6118.33
2023-02-16T13:05:40.001Z,5938.33
2023-02-16T13:06:39.990Z,5651.67
2023-02-16T13:07:39.998Z,5313.33
2023-02-16T13:08:40.018Z,4922.5
2023-02-16T13:09:40.011Z,4520.83
2023-02-16T13:10:40.025Z,4234.17
2023-02-16T13:11:40.209Z,4140.83
2023-02-16T13:12:40.013Z,4205.83
2023-02-16T13:13:39.991Z,4333.33
2023-02-16T13:14:40.034Z,4434.17
2023-02-16T13:15:40.014Z,4439.17
2023-02-16T13:16:40.027Z,4375.83
2023-02-16T13:17:39.995Z,4198.33
2023-02-16T13:18:39.993Z,3986.67
2023-02-16T13:19:40.014Z,3965.83
2023-02-16T13:20:40.016Z,4160